sensor_id;sensor_type;location;lat;lon;timestamp;pressure;altitude;pressure_sealevel;temperature;humidity
54666;BME280;40566;50.006;36.180;2022-09-17T00:02:00;98819.81;;;15.29;82.61
54666;BME280;40566;50.006;36.180;2022-09-17T00:07:00;98826.88;;;15.27;82.27
54666;BME280;40566;50.006;36.180;2022-09-17T00:12:01;98818.41;;;15.23;82.21
54666;BME280;40566;50.006;36.180;2022-09-17T00:17:01;98832.94;;;15.13;82.66
54666;BME280;40566;50.006;36.180;2022-09-17T00:22:02;98835.63;;;15.12;82.31
54666;BME280;40566;50.006;36.180;2022-09-17T00:27:03;98835.63;;;15.12;82.34
54666;BME280;40566;50.006;36.180;2022-09-17T00:32:03;98833.31;;;15.07;82.11
54666;BME280;40566;50.006;36.180;2022-09-17T00:37:04;98841.13;;;15.07;82.37
54666;BME280;40566;50.006;36.180;2022-09-17T00:42:05;98844.94;;;15.01;82.01
54666;BME280;40566;50.006;36.180;2022-09-17T00:52:44;98842.06;;;14.92;82.34
54666;BME280;40566;50.006;36.180;2022-09-17T00:57:48;98839.91;;;14.84;82.70
54666;BME280;40566;50.006;36.180;2022-09-17T01:02:51;98857.75;;;14.90;82.60
54666;BME280;40566;50.006;36.180;2022-09-17T01:08:06;98858.50;;;14.92;82.24
54666;BME280;40566;50.006;36.180;2022-09-17T01:13:32;98859.25;;;14.94;82.23
54666;BME280;40566;50.006;36.180;2022-09-17T01:35:02;98850.91;;;14.89;81.79
54666;BME280;40566;50.006;36.180;2022-09-17T01:40:16;98842.78;;;14.79;81.32
54666;BME280;40566;50.006;36.180;2022-09-17T01:45:43;98847.78;;;14.68;81.30
54666;BME280;40566;50.006;36.180;2022-09-17T01:50:55;98843.97;;;14.59;81.26
54666;BME280;40566;50.006;36.180;2022-09-17T01:55:58;98843.38;;;14.54;80.95
54666;BME280;40566;50.006;36.180;2022-09-17T02:01:03;98841.50;;;14.42;80.60
54666;BME280;40566;50.006;36.180;2022-09-17T02:11:13;98851.94;;;14.26;80.35
54666;BME280;40566;50.006;36.180;2022-09-17T02:16:27;98853.28;;;14.17;80.18
54666;BME280;40566;50.006;36.180;2022-09-17T02:26:50;98857.50;;;14.04;80.43
54666;BME280;40566;50.006;36.180;2022-09-17T02:31:54;98869.88;;;14.00;79.99
54666;BME280;40566;50.006;36.180;2022-09-17T02:36:56;98861.41;;;13.97;79.46
54666;BME280;40566;50.006;36.180;2022-09-17T02:52:27;98887.22;;;13.84;79.71
54666;BME280;40566;50.006;36.180;2022-09-17T02:57:38;98873.56;;;13.80;79.55
54666;BME280;40566;50.006;36.180;2022-09-17T03:02:55;98871.81;;;13.65;79.97
54666;BME280;40566;50.006;36.180;2022-09-17T03:07:58;98895.13;;;13.66;79.66
54666;BME280;40566;50.006;36.180;2022-09-17T03:12:59;98896.72;;;13.69;79.62
54666;BME280;40566;50.006;36.180;2022-09-17T03:18:00;98897.81;;;13.65;79.37
54666;BME280;40566;50.006;36.180;2022-09-17T03:23:01;98909.84;;;13.66;79.36
54666;BME280;40566;50.006;36.180;2022-09-17T03:28:01;98906.84;;;13.58;79.88
54666;BME280;40566;50.006;36.180;2022-09-17T03:33:02;98913.53;;;13.62;79.61
54666;BME280;40566;50.006;36.180;2022-09-17T03:38:03;98917.06;;;13.61;79.91
54666;BME280;40566;50.006;36.180;2022-09-17T03:43:03;98913.88;;;13.56;79.77
54666;BME280;40566;50.006;36.180;2022-09-17T03:48:05;98895.25;;;13.47;80.03
54666;BME280;40566;50.006;36.180;2022-09-17T03:53:05;98914.47;;;13.61;79.77
54666;BME280;40566;50.006;36.180;2022-09-17T03:58:06;98917.72;;;13.64;79.57
54666;BME280;40566;50.006;36.180;2022-09-17T04:03:07;98928.03;;;13.66;79.35
54666;BME280;40566;50.006;36.180;2022-09-17T04:08:07;98934.41;;;13.60;80.14
54666;BME280;40566;50.006;36.180;2022-09-17T04:13:09;98918.59;;;13.65;79.92
54666;BME280;40566;50.006;36.180;2022-09-17T04:18:09;98922.38;;;13.75;79.71
54666;BME280;40566;50.006;36.180;2022-09-17T04:23:11;98924.63;;;13.81;79.82
54666;BME280;40566;50.006;36.180;2022-09-17T04:28:12;98924.78;;;13.78;80.69
54666;BME280;40566;50.006;36.180;2022-09-17T04:33:12;98940.72;;;13.88;80.91
54666;BME280;40566;50.006;36.180;2022-09-17T04:38:13;98956.50;;;14.01;81.17
54666;BME280;40566;50.006;36.180;2022-09-17T04:43:17;98945.50;;;14.12;81.02
54666;BME280;40566;50.006;36.180;2022-09-17T04:48:18;98953.75;;;14.20;81.20
54666;BME280;40566;50.006;36.180;2022-09-17T04:53:18;98957.50;;;14.30;81.40
54666;BME280;40566;50.006;36.180;2022-09-17T04:58:19;98961.94;;;14.44;81.44
54666;BME280;40566;50.006;36.180;2022-09-17T05:03:20;98962.13;;;14.55;81.20
54666;BME280;40566;50.006;36.180;2022-09-17T05:08:20;98960.84;;;14.64;81.10
54666;BME280;40566;50.006;36.180;2022-09-17T05:13:23;98953.56;;;14.69;81.01
54666;BME280;40566;50.006;36.180;2022-09-17T05:18:24;98952.38;;;14.75;80.77
54666;BME280;40566;50.006;36.180;2022-09-17T05:23:25;98955.22;;;14.86;80.67
54666;BME280;40566;50.006;36.180;2022-09-17T05:28:26;98959.03;;;14.95;80.52
54666;BME280;40566;50.006;36.180;2022-09-17T05:33:28;98965.84;;;14.97;80.08
54666;BME280;40566;50.006;36.180;2022-09-17T05:38:28;98986.31;;;15.03;80.05
54666;BME280;40566;50.006;36.180;2022-09-17T05:43:29;98981.50;;;15.12;80.04
54666;BME280;40566;50.006;36.180;2022-09-17T05:48:30;98988.78;;;15.21;79.44
54666;BME280;40566;50.006;36.180;2022-09-17T05:53:30;98983.97;;;15.29;79.36
54666;BME280;40566;50.006;36.180;2022-09-17T05:58:31;98991.31;;;15.37;78.75
54666;BME280;40566;50.006;36.180;2022-09-17T06:03:33;98990.13;;;15.42;78.44
54666;BME280;40566;50.006;36.180;2022-09-17T06:08:34;98984.78;;;15.44;77.91
54666;BME280;40566;50.006;36.180;2022-09-17T06:13:36;98994.38;;;15.58;77.53
54666;BME280;40566;50.006;36.180;2022-09-17T06:18:36;99005.97;;;15.68;77.40
54666;BME280;40566;50.006;36.180;2022-09-17T06:23:37;98999.28;;;15.78;76.71
54666;BME280;40566;50.006;36.180;2022-09-17T06:28:38;99002.16;;;15.88;76.60
54666;BME280;40566;50.006;36.180;2022-09-17T06:33:39;99023.91;;;16.01;76.50
54666;BME280;40566;50.006;36.180;2022-09-17T06:38:39;99035.38;;;16.13;76.00
54666;BME280;40566;50.006;36.180;2022-09-17T06:43:40;99031.16;;;16.25;75.71
54666;BME280;40566;50.006;36.180;2022-09-17T06:48:41;99024.78;;;16.43;75.44
54666;BME280;40566;50.006;36.180;2022-09-17T06:53:42;99033.16;;;16.49;74.73
54666;BME280;40566;50.006;36.180;2022-09-17T06:58:42;99043.66;;;16.61;73.33
54666;BME280;40566;50.006;36.180;2022-09-17T07:03:43;99033.25;;;16.74;72.74
54666;BME280;40566;50.006;36.180;2022-09-17T07:08:44;99039.06;;;16.92;71.86
54666;BME280;40566;50.006;36.180;2022-09-17T07:13:46;99033.16;;;17.03;71.02
54666;BME280;40566;50.006;36.180;2022-09-17T07:18:47;99030.56;;;17.16;71.02
54666;BME280;40566;50.006;36.180;2022-09-17T07:23:47;99032.97;;;17.19;70.55
54666;BME280;40566;50.006;36.180;2022-09-17T07:28:50;99030.28;;;17.33;70.48
54666;BME280;40566;50.006;36.180;2022-09-17T07:33:52;99038.66;;;17.51;69.82
54666;BME280;40566;50.006;36.180;2022-09-17T07:38:53;99043.28;;;17.60;69.02
54666;BME280;40566;50.006;36.180;2022-09-17T07:43:54;99040.75;;;17.72;68.89
54666;BME280;40566;50.006;36.180;2022-09-17T07:48:55;99043.69;;;17.93;68.36
54666;BME280;40566;50.006;36.180;2022-09-17T07:53:57;99029.66;;;17.81;67.16
54666;BME280;40566;50.006;36.180;2022-09-17T07:58:58;99050.56;;;17.81;66.86
54666;BME280;40566;50.006;36.180;2022-09-17T08:03:59;99050.31;;;17.86;66.20
54666;BME280;40566;50.006;36.180;2022-09-17T08:08:59;99053.75;;;17.86;65.24
54666;BME280;40566;50.006;36.180;2022-09-17T08:14:00;99047.66;;;17.98;64.41
54666;BME280;40566;50.006;36.180;2022-09-17T08:19:01;99055.81;;;18.07;64.48
54666;BME280;40566;50.006;36.180;2022-09-17T08:24:02;99055.88;;;18.31;63.48
54666;BME280;40566;50.006;36.180;2022-09-17T08:29:03;99053.41;;;18.53;63.47
54666;BME280;40566;50.006;36.180;2022-09-17T08:34:08;99033.84;;;18.70;62.50
54666;BME280;40566;50.006;36.180;2022-09-17T08:39:09;99042.09;;;18.77;62.77
54666;BME280;40566;50.006;36.180;2022-09-17T08:44:17;99017.78;;;18.99;61.94
54666;BME280;40566;50.006;36.180;2022-09-17T08:49:32;99022.25;;;19.10;61.70
54666;BME280;40566;50.006;36.180;2022-09-17T09:00:31;99025.59;;;19.23;60.44
54666;BME280;40566;50.006;36.180;2022-09-17T09:05:12;99028.38;;;19.44;59.47
54666;BME280;40566;50.006;36.180;2022-09-17T09:10:24;99025.91;;;19.65;59.04
54666;BME280;40566;50.006;36.180;2022-09-17T09:15:50;99021.13;;;19.70;58.99
54666;BME280;40566;50.006;36.180;2022-09-17T09:20:55;99040.66;;;20.56;56.32
54666;BME280;40566;50.006;36.180;2022-09-17T09:36:31;99022.78;;;20.39;56.89
54666;BME280;40566;50.006;36.180;2022-09-17T09:42:15;99017.25;;;19.98;57.79
54666;BME280;40566;50.006;36.180;2022-09-17T09:47:50;99010.09;;;20.00;58.32
54666;BME280;40566;50.006;36.180;2022-09-17T09:58:27;99013.78;;;19.87;58.25
54666;BME280;40566;50.006;36.180;2022-09-17T10:03:31;99008.88;;;19.71;58.46
54666;BME280;40566;50.006;36.180;2022-09-17T10:14:25;99011.75;;;19.79;57.82
54666;BME280;40566;50.006;36.180;2022-09-17T10:19:26;99012.31;;;19.60;57.34
54666;BME280;40566;50.006;36.180;2022-09-17T10:24:29;99005.75;;;19.54;57.28
54666;BME280;40566;50.006;36.180;2022-09-17T10:29:32;99013.00;;;19.51;57.62
54666;BME280;40566;50.006;36.180;2022-09-17T10:34:33;99019.81;;;19.53;57.07
54666;BME280;40566;50.006;36.180;2022-09-17T10:39:38;99020.41;;;19.68;56.74
54666;BME280;40566;50.006;36.180;2022-09-17T10:44:57;99013.38;;;19.69;56.84
54666;BME280;40566;50.006;36.180;2022-09-17T10:50:02;99013.38;;;19.57;57.33
54666;BME280;40566;50.006;36.180;2022-09-17T11:00:30;99020.63;;;19.31;57.31
54666;BME280;40566;50.006;36.180;2022-09-17T11:11:12;99009.84;;;19.12;58.19
54666;BME280;40566;50.006;36.180;2022-09-17T11:21:41;98993.25;;;19.11;58.42
54666;BME280;40566;50.006;36.180;2022-09-17T11:37:11;98990.81;;;19.32;59.99
54666;BME280;40566;50.006;36.180;2022-09-17T11:42:18;98993.69;;;19.40;58.67
54666;BME280;40566;50.006;36.180;2022-09-17T11:47:35;98988.78;;;19.25;57.80
54666;BME280;40566;50.006;36.180;2022-09-17T11:52:37;98980.53;;;19.18;58.61
54666;BME280;40566;50.006;36.180;2022-09-17T11:57:41;98990.34;;;19.38;58.53
54666;BME280;40566;50.006;36.180;2022-09-17T12:23:59;98981.22;;;19.09;58.31
54666;BME280;40566;50.006;36.180;2022-09-17T12:29:26;98985.16;;;19.03;58.19
54666;BME280;40566;50.006;36.180;2022-09-17T12:39:45;98986.44;;;18.86;59.66
54666;BME280;40566;50.006;36.180;2022-09-17T13:01:00;98978.47;;;18.75;63.35
54666;BME280;40566;50.006;36.180;2022-09-17T13:16:45;98954.84;;;18.63;64.47
54666;BME280;40566;50.006;36.180;2022-09-17T13:27:03;98963.22;;;18.69;65.22
54666;BME280;40566;50.006;36.180;2022-09-17T13:32:04;98969.28;;;18.69;65.73
54666;BME280;40566;50.006;36.180;2022-09-17T13:37:18;98948.91;;;18.61;65.45
54666;BME280;40566;50.006;36.180;2022-09-17T13:42:24;98935.19;;;18.58;66.33
54666;BME280;40566;50.006;36.180;2022-09-17T13:47:30;98941.50;;;18.55;65.71
54666;BME280;40566;50.006;36.180;2022-09-17T13:52:47;98942.47;;;18.54;65.53
54666;BME280;40566;50.006;36.180;2022-09-17T13:57:49;98955.03;;;18.49;65.55
54666;BME280;40566;50.006;36.180;2022-09-17T14:02:50;98946.47;;;18.47;65.32
54666;BME280;40566;50.006;36.180;2022-09-17T14:08:08;98937.88;;;18.45;65.89
54666;BME280;40566;50.006;36.180;2022-09-17T14:13:40;98931.88;;;18.32;66.11
54666;BME280;40566;50.006;36.180;2022-09-17T14:18:42;98935.03;;;18.24;66.89
54666;BME280;40566;50.006;36.180;2022-09-17T14:23:45;98931.22;;;18.17;67.21
54666;BME280;40566;50.006;36.180;2022-09-17T14:29:17;98924.53;;;18.13;67.23
54666;BME280;40566;50.006;36.180;2022-09-17T14:34:21;98926.00;;;18.04;67.42
54666;BME280;40566;50.006;36.180;2022-09-17T14:39:29;98925.28;;;18.02;67.47
54666;BME280;40566;50.006;36.180;2022-09-17T14:44:35;98921.44;;;17.95;67.51
54666;BME280;40566;50.006;36.180;2022-09-17T14:49:36;98911.31;;;17.90;67.56
54666;BME280;40566;50.006;36.180;2022-09-17T14:54:39;98918.44;;;17.88;67.69
54666;BME280;40566;50.006;36.180;2022-09-17T14:59:56;98909.97;;;17.84;67.30
54666;BME280;40566;50.006;36.180;2022-09-17T15:04:59;98920.81;;;17.78;67.34
54666;BME280;40566;50.006;36.180;2022-09-17T15:10:14;98921.16;;;17.74;67.78
54666;BME280;40566;50.006;36.180;2022-09-17T15:15:23;98917.31;;;17.67;67.80
54666;BME280;40566;50.006;36.180;2022-09-17T15:20:29;98913.13;;;17.64;68.25
54666;BME280;40566;50.006;36.180;2022-09-17T15:25:32;98913.66;;;17.56;68.65
54666;BME280;40566;50.006;36.180;2022-09-17T15:30:33;98911.47;;;17.50;68.79
54666;BME280;40566;50.006;36.180;2022-09-17T15:35:33;98918.69;;;17.47;68.59
54666;BME280;40566;50.006;36.180;2022-09-17T15:40:39;98907.50;;;17.44;68.70
54666;BME280;40566;50.006;36.180;2022-09-17T15:45:40;98916.50;;;17.40;68.54
54666;BME280;40566;50.006;36.180;2022-09-17T16:11:27;98894.03;;;17.25;69.36
54666;BME280;40566;50.006;36.180;2022-09-17T16:16:34;98899.06;;;17.28;69.05
54666;BME280;40566;50.006;36.180;2022-09-17T16:21:35;98912.00;;;17.30;69.43
54666;BME280;40566;50.006;36.180;2022-09-17T16:26:35;98889.13;;;17.33;69.62
54666;BME280;40566;50.006;36.180;2022-09-17T16:31:37;98877.00;;;17.32;69.60
54666;BME280;40566;50.006;36.180;2022-09-17T16:36:38;98877.00;;;17.32;70.15
54666;BME280;40566;50.006;36.180;2022-09-17T16:41:39;98870.19;;;17.30;70.65
54666;BME280;40566;50.006;36.180;2022-09-17T16:46:39;98848.16;;;17.21;71.04
54666;BME280;40566;50.006;36.180;2022-09-17T16:51:40;98839.59;;;17.19;71.37
54666;BME280;40566;50.006;36.180;2022-09-17T16:56:41;98830.28;;;17.15;72.08
54666;BME280;40566;50.006;36.180;2022-09-17T17:01:41;98825.78;;;17.17;71.77
54666;BME280;40566;50.006;36.180;2022-09-17T17:06:42;98822.44;;;17.15;72.08
54666;BME280;40566;50.006;36.180;2022-09-17T17:11:43;98832.91;;;17.15;72.55
54666;BME280;40566;50.006;36.180;2022-09-17T17:16:44;98850.56;;;17.11;72.32
54666;BME280;40566;50.006;36.180;2022-09-17T17:21:44;98843.88;;;17.07;73.00
54666;BME280;40566;50.006;36.180;2022-09-17T17:26:47;98806.91;;;17.00;73.58
54666;BME280;40566;50.006;36.180;2022-09-17T17:31:48;98812.66;;;16.93;73.87
54666;BME280;40566;50.006;36.180;2022-09-17T17:36:50;98810.03;;;16.93;73.77
54666;BME280;40566;50.006;36.180;2022-09-17T17:41:50;98799.06;;;16.88;74.12
54666;BME280;40566;50.006;36.180;2022-09-17T17:46:53;98782.97;;;16.81;74.75
54666;BME280;40566;50.006;36.180;2022-09-17T17:51:54;98773.78;;;16.75;75.05
54666;BME280;40566;50.006;36.180;2022-09-17T17:56:55;98778.59;;;16.69;75.08
54666;BME280;40566;50.006;36.180;2022-09-17T18:01:55;98787.69;;;16.63;75.53
54666;BME280;40566;50.006;36.180;2022-09-17T18:06:56;98847.00;;;16.61;75.74
54666;BME280;40566;50.006;36.180;2022-09-17T18:11:56;98884.69;;;16.57;75.74
54666;BME280;40566;50.006;36.180;2022-09-17T18:16:57;98885.28;;;16.48;76.42
54666;BME280;40566;50.006;36.180;2022-09-17T18:21:59;98891.94;;;16.39;76.86
54666;BME280;40566;50.006;36.180;2022-09-17T18:26:59;98857.69;;;16.31;77.36
54666;BME280;40566;50.006;36.180;2022-09-17T18:32:00;98842.16;;;16.29;77.37
54666;BME280;40566;50.006;36.180;2022-09-17T18:37:01;98835.25;;;16.28;77.58
54666;BME280;40566;50.006;36.180;2022-09-17T18:42:02;98818.84;;;16.26;77.60
54666;BME280;40566;50.006;36.180;2022-09-17T18:47:03;98803.69;;;16.18;77.85
54666;BME280;40566;50.006;36.180;2022-09-17T18:52:04;98792.44;;;16.18;77.99
54666;BME280;40566;50.006;36.180;2022-09-17T18:57:04;98785.25;;;16.21;78.03
54666;BME280;40566;50.006;36.180;2022-09-17T19:02:10;98758.94;;;16.24;77.93
54666;BME280;40566;50.006;36.180;2022-09-17T19:07:10;98766.03;;;16.22;78.11
54666;BME280;40566;50.006;36.180;2022-09-17T19:12:11;98749.63;;;16.20;78.19
54666;BME280;40566;50.006;36.180;2022-09-17T19:17:12;98754.13;;;16.18;78.30
54666;BME280;40566;50.006;36.180;2022-09-17T19:22:12;98734.06;;;16.19;78.26
54666;BME280;40566;50.006;36.180;2022-09-17T19:27:13;98728.44;;;16.12;78.67
54666;BME280;40566;50.006;36.180;2022-09-17T19:32:13;98720.72;;;16.11;78.70
54666;BME280;40566;50.006;36.180;2022-09-17T19:37:15;98710.91;;;16.14;78.73
54666;BME280;40566;50.006;36.180;2022-09-17T19:42:18;98717.06;;;16.13;78.94
54666;BME280;40566;50.006;36.180;2022-09-17T19:47:19;98714.34;;;16.15;78.89
54666;BME280;40566;50.006;36.180;2022-09-17T19:52:20;98715.41;;;16.12;78.80
54666;BME280;40566;50.006;36.180;2022-09-17T19:57:21;98727.41;;;16.15;78.87
54666;BME280;40566;50.006;36.180;2022-09-17T20:02:21;98716.03;;;16.16;79.24
54666;BME280;40566;50.006;36.180;2022-09-17T20:07:22;98703.19;;;16.13;79.00
54666;BME280;40566;50.006;36.180;2022-09-17T20:12:22;98685.66;;;16.15;78.91
54666;BME280;40566;50.006;36.180;2022-09-17T20:17:23;98698.59;;;16.16;78.89
54666;BME280;40566;50.006;36.180;2022-09-17T20:22:23;98697.78;;;16.16;79.26
54666;BME280;40566;50.006;36.180;2022-09-17T20:27:24;98675.22;;;16.15;79.50
54666;BME280;40566;50.006;36.180;2022-09-17T20:32:25;98663.97;;;16.14;79.34
54666;BME280;40566;50.006;36.180;2022-09-17T20:37:27;98644.53;;;16.18;79.28
54666;BME280;40566;50.006;36.180;2022-09-17T20:42:28;98634.00;;;16.20;79.72
54666;BME280;40566;50.006;36.180;2022-09-17T20:47:29;98639.31;;;16.18;79.55
54666;BME280;40566;50.006;36.180;2022-09-17T20:52:29;98639.31;;;16.18;79.78
54666;BME280;40566;50.006;36.180;2022-09-17T20:57:30;98627.22;;;16.17;79.92
54666;BME280;40566;50.006;36.180;2022-09-17T21:02:31;98626.28;;;16.18;79.81
54666;BME280;40566;50.006;36.180;2022-09-17T21:07:33;98595.69;;;16.20;79.66
54666;BME280;40566;50.006;36.180;2022-09-17T21:12:34;98588.09;;;16.17;80.17
54666;BME280;40566;50.006;36.180;2022-09-17T21:17:34;98563.75;;;16.17;80.04
54666;BME280;40566;50.006;36.180;2022-09-17T21:22:35;98581.28;;;16.15;80.16
54666;BME280;40566;50.006;36.180;2022-09-17T21:27:36;98565.53;;;16.16;80.01
54666;BME280;40566;50.006;36.180;2022-09-17T21:32:36;98568.16;;;16.16;80.43
54666;BME280;40566;50.006;36.180;2022-09-17T21:37:37;98557.50;;;16.19;80.59
54666;BME280;40566;50.006;36.180;2022-09-17T21:42:38;98548.72;;;16.20;80.73
54666;BME280;40566;50.006;36.180;2022-09-17T21:47:39;98542.44;;;16.23;80.90
54666;BME280;40566;50.006;36.180;2022-09-17T21:52:39;98532.00;;;16.23;80.96
54666;BME280;40566;50.006;36.180;2022-09-17T21:57:40;98523.16;;;16.25;80.88
54666;BME280;40566;50.006;36.180;2022-09-17T22:02:40;98510.13;;;16.25;81.10
54666;BME280;40566;50.006;36.180;2022-09-17T22:07:41;98501.44;;;16.25;81.51
54666;BME280;40566;50.006;36.180;2022-09-17T22:12:42;98520.31;;;16.29;81.62
54666;BME280;40566;50.006;36.180;2022-09-17T22:17:42;98514.06;;;16.31;81.67
54666;BME280;40566;50.006;36.180;2022-09-17T22:22:43;98495.06;;;16.29;81.77
54666;BME280;40566;50.006;36.180;2022-09-17T22:27:47;98462.91;;;16.29;81.65
54666;BME280;40566;50.006;36.180;2022-09-17T22:32:48;98487.13;;;16.31;81.89
54666;BME280;40566;50.006;36.180;2022-09-17T22:37:49;98472.31;;;16.31;81.91
54666;BME280;40566;50.006;36.180;2022-09-17T22:42:49;98464.34;;;16.33;82.39
54666;BME280;40566;50.006;36.180;2022-09-17T22:47:50;98464.97;;;16.36;82.22
54666;BME280;40566;50.006;36.180;2022-09-17T22:52:51;98462.47;;;16.35;82.29
54666;BME280;40566;50.006;36.180;2022-09-17T22:57:51;98461.75;;;16.33;82.35
54666;BME280;40566;50.006;36.180;2022-09-17T23:02:52;98457.03;;;16.38;82.46
54666;BME280;40566;50.006;36.180;2022-09-17T23:07:52;98459.53;;;16.39;82.53
54666;BME280;40566;50.006;36.180;2022-09-17T23:12:53;98447.22;;;16.41;82.48
54666;BME280;40566;50.006;36.180;2022-09-17T23:17:54;98450.66;;;16.42;82.57
54666;BME280;40566;50.006;36.180;2022-09-17T23:22:55;98456.59;;;16.44;82.75
54666;BME280;40566;50.006;36.180;2022-09-17T23:27:56;98447.59;;;16.48;82.69
54666;BME280;40566;50.006;36.180;2022-09-17T23:32:56;98440.47;;;16.50;82.77
54666;BME280;40566;50.006;36.180;2022-09-17T23:37:58;98435.25;;;16.50;83.00
54666;BME280;40566;50.006;36.180;2022-09-17T23:42:58;98436.69;;;16.54;83.28
54666;BME280;40566;50.006;36.180;2022-09-17T23:47:59;98428.75;;;16.56;83.35
54666;BME280;40566;50.006;36.180;2022-09-17T23:52:59;98427.81;;;16.57;83.25
54666;BME280;40566;50.006;36.180;2022-09-17T23:58:00;98427.69;;;16.58;83.44
